Time;durP1;ratioP1;P1;durP2;ratioP2;P2;SDS_P1;SDS_P2;PMS_P1;PMS_P2;Temp;Humidity;BMP_temperature;BMP_pressure;BME280_temperature;BME280_humidity;BME280_pressure;Samples;Min_cycle;Max_cycle;Signal;HPM_P1;HPM_P2
2023/03/10 00:03:11;;;;;;;19.15;5.55;;;16.10;90.60;;;;;;5010857;28;20049;-75
2023/03/10 00:05:37;;;;;;;22.15;5.80;;;16.10;90.70;;;;;;5012930;28;20480;-76
2023/03/10 00:08:03;;;;;;;21.40;6.30;;;16.10;90.70;;;;;;5012726;28;20034;-75
2023/03/10 00:10:29;;;;;;;20.35;5.13;;;16.10;90.80;;;;;;5012693;28;20034;-75
2023/03/10 00:12:55;;;;;;;20.35;5.35;;;16.10;90.80;;;;;;5012926;28;20185;-75
2023/03/10 00:15:22;;;;;;;20.00;5.47;;;16.10;90.80;;;;;;5012740;28;20037;-74
2023/03/10 00:17:54;;;;;;;19.20;5.28;;;16.10;91.00;;;;;;5012824;28;20447;-76
2023/03/10 00:20:21;;;;;;;17.33;5.40;;;16.10;90.90;;;;;;5012790;28;20459;-75
2023/03/10 00:22:47;;;;;;;18.38;5.50;;;16.10;91.00;;;;;;4996143;28;20041;-75
2023/03/10 00:25:14;;;;;;;21.23;6.68;;;16.10;91.10;;;;;;5017029;28;20034;-74
2023/03/10 00:27:40;;;;;;;19.52;7.75;;;16.20;91.10;;;;;;5016776;28;20041;-75
2023/03/10 00:30:06;;;;;;;23.60;7.90;;;16.20;91.10;;;;;;5016943;28;20041;-74
2023/03/10 00:32:34;;;;;;;18.10;7.65;;;16.10;91.10;;;;;;5018709;28;20030;-75
2023/03/10 00:35:00;;;;;;;21.48;9.05;;;16.10;91.20;;;;;;4999245;28;20029;-75
2023/03/10 00:37:26;;;;;;;24.88;9.05;;;16.20;91.40;;;;;;5016848;28;20038;-74
2023/03/10 00:39:52;;;;;;;20.00;8.27;;;16.10;91.40;;;;;;5016309;28;20030;-74
2023/03/10 00:42:19;;;;;;;25.13;9.40;;;16.10;91.30;;;;;;5015757;28;20037;-72
2023/03/10 00:44:45;;;;;;;23.08;9.38;;;16.20;91.40;;;;;;5015810;28;20037;-73
2023/03/10 00:47:11;;;;;;;22.92;8.48;;;16.10;91.40;;;;;;5015898;28;20034;-75
2023/03/10 00:49:36;;;;;;;22.80;8.20;;;16.20;91.50;;;;;;5016830;28;20034;-76
2023/03/10 00:52:02;;;;;;;20.02;7.82;;;16.20;91.50;;;;;;5015282;28;20085;-77
2023/03/10 00:54:28;;;;;;;18.00;7.32;;;16.20;91.40;;;;;;5019458;28;20029;-76
2023/03/10 00:56:54;;;;;;;20.42;7.45;;;16.20;91.50;;;;;;5033655;28;20034;-76
2023/03/10 00:59:20;;;;;;;15.07;5.25;;;16.20;91.50;;;;;;5036329;28;20033;-76
2023/03/10 01:01:45;;;;;;;19.70;6.22;;;16.20;91.50;;;;;;5026051;28;20128;-69
2023/03/10 01:04:14;;;;;;;16.33;5.40;;;16.20;91.50;;;;;;5015745;28;20053;-76
2023/03/10 01:06:41;;;;;;;20.52;5.60;;;16.20;91.60;;;;;;5015930;28;20046;-75
2023/03/10 01:09:07;;;;;;;22.70;5.20;;;16.20;91.50;;;;;;5020831;28;20034;-77
2023/03/10 01:11:33;;;;;;;16.63;4.93;;;16.20;91.50;;;;;;5015953;28;20026;-77
2023/03/10 01:14:01;;;;;;;19.23;5.22;;;16.20;91.50;;;;;;5015582;28;20418;-77
2023/03/10 01:16:28;;;;;;;18.63;5.63;;;16.20;91.50;;;;;;5016597;28;20037;-77
2023/03/10 01:18:54;;;;;;;23.73;5.18;;;16.20;91.40;;;;;;5016423;28;20118;-77
2023/03/10 01:21:23;;;;;;;18.75;5.32;;;16.20;91.40;;;;;;5000454;28;20393;-77
2023/03/10 01:23:49;;;;;;;18.42;5.10;;;16.20;91.40;;;;;;5015274;28;20042;-77
2023/03/10 01:26:16;;;;;;;21.77;5.45;;;16.20;91.30;;;;;;5015402;28;20030;-78
2023/03/10 01:28:42;;;;;;;24.30;5.07;;;16.20;91.40;;;;;;5015472;28;20022;-77
2023/03/10 01:31:07;;;;;;;25.08;6.03;;;16.20;91.40;;;;;;5015658;28;20036;-76
2023/03/10 01:33:35;;;;;;;22.80;5.00;;;16.20;91.40;;;;;;5015318;28;20042;-77
2023/03/10 01:36:07;;;;;;;22.60;5.45;;;16.10;91.40;;;;;;4997567;28;20038;-76
2023/03/10 01:38:33;;;;;;;19.38;5.55;;;16.10;91.40;;;;;;5015265;28;20046;-75
2023/03/10 01:40:58;;;;;;;19.75;5.82;;;16.00;91.50;;;;;;5015566;28;20030;-77
2023/03/10 01:43:36;;;;;;;19.77;5.10;;;16.00;91.50;;;;;;5015138;28;20038;-77
2023/03/10 01:46:24;;;;;;;17.55;4.70;;;16.00;91.60;;;;;;5015065;28;20109;-70
2023/03/10 01:48:50;;;;;;;32.35;5.10;;;16.00;91.40;;;;;;5015130;28;20138;-77
2023/03/10 01:51:17;;;;;;;15.32;4.90;;;15.90;91.60;;;;;;5015021;28;20042;-77
2023/03/10 01:53:43;;;;;;;22.23;5.43;;;15.90;91.60;;;;;;5015230;28;20037;-77
2023/03/10 01:56:09;;;;;;;18.35;5.13;;;15.90;91.70;;;;;;5014894;28;20034;-76
2023/03/10 01:58:42;;;;;;;17.13;5.13;;;15.80;91.60;;;;;;5015224;28;20034;-77
2023/03/10 02:01:10;;;;;;;17.20;5.07;;;15.80;91.70;;;;;;5015760;28;20038;-77
2023/03/10 02:03:49;;;;;;;23.33;6.07;;;15.80;91.90;;;;;;5019154;28;20049;-76
2023/03/10 02:06:18;;;;;;;20.02;5.63;;;15.70;91.60;;;;;;5023345;28;20034;-77
2023/03/10 02:08:53;;;;;;;20.27;6.20;;;15.70;92.00;;;;;;5032608;28;20080;-76
2023/03/10 02:11:20;;;;;;;22.77;5.93;;;15.70;92.00;;;;;;5031377;28;20042;-76
2023/03/10 02:13:46;;;;;;;21.80;6.15;;;15.80;92.10;;;;;;5015296;28;20044;-77
2023/03/10 02:16:12;;;;;;;21.42;6.00;;;15.80;92.00;;;;;;5014586;28;20112;-76
2023/03/10 02:18:42;;;;;;;20.65;6.35;;;15.80;92.00;;;;;;5014553;28;20037;-77
2023/03/10 02:21:40;;;;;;;27.48;6.22;;;15.80;92.00;;;;;;5014656;28;20041;-77
2023/03/10 02:24:17;;;;;;;22.23;6.78;;;15.80;91.80;;;;;;5014225;28;20104;-77
2023/03/10 02:26:57;;;;;;;25.88;7.30;;;15.80;92.20;;;;;;5014406;28;20121;-76
2023/03/10 02:29:29;;;;;;;26.73;7.22;;;15.80;92.00;;;;;;5014376;28;20041;-76
2023/03/10 02:31:56;;;;;;;16.73;6.13;;;15.80;92.30;;;;;;5014440;28;20030;-76
2023/03/10 02:34:23;;;;;;;23.67;6.50;;;15.80;92.30;;;;;;5014073;28;20026;-77
2023/03/10 02:36:49;;;;;;;21.35;6.80;;;15.80;92.30;;;;;;5014250;28;20485;-78
2023/03/10 02:39:14;;;;;;;19.00;6.35;;;15.80;92.20;;;;;;5014073;28;20092;-75
2023/03/10 02:41:41;;;;;;;22.02;6.97;;;15.90;92.30;;;;;;5015304;28;20093;-77
2023/03/10 02:44:11;;;;;;;26.38;7.30;;;15.80;92.60;;;;;;5014790;28;20518;-77
2023/03/10 02:46:37;;;;;;;22.15;7.18;;;15.80;92.50;;;;;;5014091;28;20026;-76
2023/03/10 02:49:05;;;;;;;24.13;7.28;;;15.70;92.40;;;;;;5014793;28;20034;-76
2023/03/10 02:51:34;;;;;;;21.65;7.30;;;15.70;92.60;;;;;;5013838;28;20026;-78
2023/03/10 02:54:01;;;;;;;24.02;8.05;;;15.70;92.70;;;;;;5013872;28;20053;-76
2023/03/10 02:56:28;;;;;;;19.17;6.95;;;15.70;92.70;;;;;;5013858;28;20065;-76
2023/03/10 02:58:54;;;;;;;24.25;7.10;;;15.70;92.80;;;;;;5013824;28;20112;-76
2023/03/10 03:01:20;;;;;;;27.10;7.60;;;15.70;92.70;;;;;;5014177;28;20434;-77
2023/03/10 03:03:46;;;;;;;28.73;8.48;;;15.70;92.70;;;;;;5013949;28;20046;-76
2023/03/10 03:06:12;;;;;;;29.88;8.60;;;15.70;92.80;;;;;;5013848;28;20038;-77
2023/03/10 03:08:38;;;;;;;25.50;7.65;;;15.80;92.80;;;;;;5013710;28;20033;-77
2023/03/10 03:11:04;;;;;;;22.42;8.15;;;15.80;92.70;;;;;;5013693;28;20475;-76
2023/03/10 03:13:30;;;;;;;29.88;8.57;;;15.80;92.80;;;;;;5013535;28;20088;-76
2023/03/10 03:15:55;;;;;;;29.80;8.35;;;15.80;92.80;;;;;;5013791;28;20084;-76
2023/03/10 03:18:21;;;;;;;24.10;7.55;;;15.80;92.90;;;;;;5013341;28;20042;-76
2023/03/10 03:20:47;;;;;;;22.95;7.60;;;15.80;92.90;;;;;;5013371;28;20501;-76
2023/03/10 03:23:13;;;;;;;32.53;8.43;;;15.80;93.00;;;;;;5013144;28;20046;-76
2023/03/10 03:25:40;;;;;;;30.70;9.02;;;15.80;93.00;;;;;;5011946;28;20429;-77
2023/03/10 03:28:08;;;;;;;26.05;7.15;;;15.80;93.00;;;;;;5013299;28;20041;-77
2023/03/10 03:30:34;;;;;;;25.30;7.32;;;15.80;93.10;;;;;;5013391;28;20022;-77
2023/03/10 03:33:02;;;;;;;28.98;7.97;;;15.80;93.10;;;;;;5013650;28;20375;-76
2023/03/10 03:35:31;;;;;;;28.27;7.95;;;15.80;93.10;;;;;;5013620;28;20379;-76
2023/03/10 03:37:57;;;;;;;29.15;7.78;;;15.80;93.10;;;;;;5013028;28;20386;-76
2023/03/10 03:40:24;;;;;;;24.00;7.80;;;15.80;93.10;;;;;;5013141;28;20049;-77
2023/03/10 03:42:52;;;;;;;30.48;7.78;;;15.90;93.20;;;;;;5012824;28;20038;-77
2023/03/10 03:45:20;;;;;;;24.33;8.00;;;15.80;93.20;;;;;;5012874;28;20124;-77
2023/03/10 03:47:47;;;;;;;30.35;9.07;;;15.90;93.20;;;;;;5012779;28;20110;-77
2023/03/10 03:50:14;;;;;;;28.40;7.93;;;15.90;93.30;;;;;;5012879;28;20038;-77
2023/03/10 03:52:41;;;;;;;25.13;7.18;;;15.90;93.30;;;;;;5012739;28;20025;-76
2023/03/10 03:55:08;;;;;;;26.60;7.25;;;15.80;93.30;;;;;;4995002;28;20042;-76
2023/03/10 03:57:35;;;;;;;26.63;6.95;;;15.80;93.30;;;;;;5011874;28;20501;-76
2023/03/10 04:00:01;;;;;;;24.48;6.88;;;15.80;93.30;;;;;;5012549;28;20026;-77
2023/03/10 04:02:27;;;;;;;24.23;7.15;;;15.80;93.30;;;;;;5012323;28;20078;-76
2023/03/10 04:04:53;;;;;;;29.83;7.28;;;15.90;93.40;;;;;;5012717;28;20077;-77
2023/03/10 04:07:19;;;;;;;26.20;7.60;;;15.90;93.40;;;;;;5012537;28;20038;-76
2023/03/10 04:09:45;;;;;;;28.00;7.47;;;15.90;93.30;;;;;;5012863;28;20033;-77
2023/03/10 04:12:11;;;;;;;29.02;6.97;;;15.90;93.40;;;;;;5012755;28;20409;-77
2023/03/10 04:14:37;;;;;;;29.52;8.30;;;15.90;93.30;;;;;;5012161;28;20045;-76
2023/03/10 04:17:04;;;;;;;25.48;7.82;;;15.90;93.30;;;;;;5012339;28;20030;-77
2023/03/10 04:19:30;;;;;;;29.02;7.40;;;15.90;93.30;;;;;;5013372;28;20033;-76
2023/03/10 04:21:56;;;;;;;26.30;7.20;;;15.90;93.40;;;;;;5012717;28;20034;-76
2023/03/10 04:24:21;;;;;;;25.55;6.68;;;15.90;93.30;;;;;;5012600;28;20052;-77
2023/03/10 04:26:47;;;;;;;23.90;7.05;;;15.90;93.30;;;;;;4994660;28;20069;-77
2023/03/10 04:29:13;;;;;;;22.48;6.60;;;15.90;93.30;;;;;;5012815;28;20060;-77
2023/03/10 04:31:39;;;;;;;24.48;6.15;;;15.90;93.60;;;;;;5012328;28;20046;-76
2023/03/10 04:34:04;;;;;;;27.65;6.30;;;15.90;93.30;;;;;;5012242;28;20497;-77
2023/03/10 04:36:31;;;;;;;24.80;6.00;;;15.90;93.30;;;;;;5012225;28;20038;-76
2023/03/10 04:38:57;;;;;;;23.23;6.18;;;15.90;93.30;;;;;;5012136;28;20034;-77
2023/03/10 04:41:23;;;;;;;25.25;7.15;;;15.90;93.20;;;;;;5011983;28;20033;-76
2023/03/10 04:43:49;;;;;;;22.55;6.63;;;15.90;93.20;;;;;;5012099;28;20486;-77
2023/03/10 04:46:15;;;;;;;26.30;6.50;;;16.00;93.20;;;;;;5011750;28;20041;-77
2023/03/10 04:48:41;;;;;;;20.73;6.18;;;16.00;93.20;;;;;;5012122;28;20022;-77
2023/03/10 04:51:09;;;;;;;21.50;5.78;;;15.90;93.10;;;;;;5012036;28;20060;-77
2023/03/10 04:53:36;;;;;;;19.77;5.38;;;15.90;93.00;;;;;;5011715;28;20049;-77
2023/03/10 04:56:05;;;;;;;20.50;5.47;;;16.00;93.00;;;;;;5011757;28;20066;-77
2023/03/10 04:58:32;;;;;;;27.10;6.07;;;16.00;92.90;;;;;;5012027;28;20121;-75
2023/03/10 05:00:58;;;;;;;22.38;5.53;;;16.00;92.90;;;;;;5011963;28;20033;-77
2023/03/10 05:03:24;;;;;;;19.27;4.82;;;16.00;92.80;;;;;;5014342;28;20117;-77
2023/03/10 05:05:50;;;;;;;25.38;5.70;;;16.00;92.80;;;;;;5024500;28;20061;-78
2023/03/10 05:08:16;;;;;;;22.50;6.03;;;16.00;92.80;;;;;;5023347;28;20064;-79
2023/03/10 05:10:43;;;;;;;18.23;5.53;;;16.00;92.70;;;;;;5018856;28;20113;-77
2023/03/10 05:13:12;;;;;;;18.92;6.35;;;16.10;92.70;;;;;;5017692;28;20113;-78
2023/03/10 05:15:39;;;;;;;19.45;5.93;;;16.10;92.60;;;;;;5017873;28;20037;-77
2023/03/10 05:18:06;;;;;;;26.55;6.78;;;16.10;92.70;;;;;;4996320;28;20042;-77
2023/03/10 05:20:32;;;;;;;19.63;5.90;;;16.00;92.60;;;;;;4995899;28;20034;-77
2023/03/10 05:22:57;;;;;;;27.15;7.13;;;16.10;92.50;;;;;;4995923;28;20137;-77
2023/03/10 05:25:23;;;;;;;23.67;5.78;;;16.10;92.50;;;;;;4996137;28;20034;-77
2023/03/10 05:27:49;;;;;;;17.30;6.05;;;16.00;92.50;;;;;;4995608;28;20035;-77
2023/03/10 05:30:15;;;;;;;23.60;6.43;;;16.00;92.40;;;;;;4996054;28;20121;-76
2023/03/10 05:32:42;;;;;;;26.58;7.22;;;16.00;92.40;;;;;;4995719;28;20019;-77
2023/03/10 05:35:09;;;;;;;20.33;5.50;;;16.10;92.60;;;;;;4996011;28;20402;-76
2023/03/10 05:37:40;;;;;;;20.92;6.65;;;16.00;92.60;;;;;;4996109;28;20034;-77
2023/03/10 05:40:08;;;;;;;22.23;5.72;;;16.10;92.60;;;;;;4995857;28;20379;-77
2023/03/10 05:42:34;;;;;;;26.30;6.97;;;16.00;92.40;;;;;;4995724;28;20398;-77
2023/03/10 05:45:00;;;;;;;23.23;5.93;;;16.00;92.50;;;;;;4995602;28;20136;-78
2023/03/10 05:47:25;;;;;;;20.20;6.18;;;16.00;92.50;;;;;;4995634;28;20061;-77
2023/03/10 05:49:51;;;;;;;37.28;7.22;;;16.00;92.50;;;;;;4995622;28;20049;-77
2023/03/10 05:52:17;;;;;;;20.67;5.75;;;16.00;92.50;;;;;;4995962;28;20054;-78
2023/03/10 05:54:43;;;;;;;23.65;6.68;;;16.00;92.50;;;;;;4996424;28;20465;-77
2023/03/10 05:57:09;;;;;;;23.63;6.88;;;16.00;92.50;;;;;;4995268;28;20085;-77
2023/03/10 05:59:34;;;;;;;24.50;6.68;;;16.00;92.50;;;;;;4995561;28;20490;-78
2023/03/10 06:02:00;;;;;;;25.55;6.75;;;16.00;92.50;;;;;;4994907;28;20367;-78
2023/03/10 06:04:32;;;;;;;23.75;7.68;;;16.10;92.50;;;;;;4995368;28;20078;-77
2023/03/10 06:07:01;;;;;;;20.80;6.43;;;16.10;92.40;;;;;;4995146;28;20030;-78
2023/03/10 06:09:29;;;;;;;27.73;7.32;;;16.10;92.60;;;;;;4995287;28;20034;-78
2023/03/10 06:11:55;;;;;;;24.75;9.38;;;16.10;92.60;;;;;;4995445;28;20510;-76
2023/03/10 06:14:21;;;;;;;25.70;8.00;;;16.10;92.70;;;;;;4977374;28;20035;-77
2023/03/10 06:16:50;;;;;;;26.50;7.68;;;16.10;92.70;;;;;;4995420;28;20117;-78
2023/03/10 06:19:19;;;;;;;28.30;8.73;;;16.10;92.80;;;;;;4995202;28;20553;-77
2023/03/10 06:21:45;;;;;;;25.48;8.40;;;16.10;92.90;;;;;;4994606;28;20042;-77
2023/03/10 06:24:11;;;;;;;21.10;8.48;;;16.10;92.90;;;;;;4994821;28;20042;-78
2023/03/10 06:26:37;;;;;;;30.63;10.45;;;16.00;93.00;;;;;;4994748;28;20041;-77
2023/03/10 06:29:04;;;;;;;29.85;9.90;;;16.00;93.00;;;;;;4994869;28;20030;-77
2023/03/10 06:31:30;;;;;;;36.63;11.40;;;16.00;93.10;;;;;;4995144;28;20111;-77
2023/03/10 06:33:56;;;;;;;35.00;11.73;;;16.00;93.20;;;;;;4995200;28;20042;-78
2023/03/10 06:36:22;;;;;;;26.55;10.38;;;16.00;93.30;;;;;;4995617;28;20026;-76
2023/03/10 06:38:48;;;;;;;32.00;11.10;;;16.00;93.30;;;;;;4994998;28;20034;-78
2023/03/10 06:41:15;;;;;;;31.63;10.38;;;16.00;93.40;;;;;;4995021;28;20502;-79
2023/03/10 06:43:41;;;;;;;32.08;11.65;;;16.10;93.40;;;;;;4994581;28;20094;-78
2023/03/10 06:46:09;;;;;;;33.75;10.80;;;16.10;93.40;;;;;;4994728;28;20034;-79
2023/03/10 06:48:36;;;;;;;34.25;11.68;;;16.10;93.40;;;;;;4994921;28;20034;-79
2023/03/10 06:51:09;;;;;;;37.35;11.45;;;16.10;93.40;;;;;;4997086;28;20038;-79
2023/03/10 06:53:35;;;;;;;34.03;11.80;;;16.10;93.10;;;;;;5034642;28;20030;-77
2023/03/10 06:56:04;;;;;;;37.75;12.32;;;16.20;93.40;;;;;;5033548;28;20065;-78
2023/03/10 06:58:32;;;;;;;45.60;11.70;;;16.20;93.30;;;;;;5034158;28;20029;-78
2023/03/10 07:00:57;;;;;;;32.65;11.07;;;16.30;93.30;;;;;;5033405;28;20033;-78
2023/03/10 07:03:25;;;;;;;32.65;10.85;;;16.40;93.20;;;;;;5033887;28;20053;-79
2023/03/10 07:05:51;;;;;;;33.25;10.63;;;16.40;93.20;;;;;;5033888;28;20036;-77
2023/03/10 07:08:18;;;;;;;34.25;11.38;;;16.40;93.10;;;;;;5033581;28;20044;-77
2023/03/10 07:10:43;;;;;;;37.67;11.40;;;16.50;93.10;;;;;;5034458;28;20125;-78
2023/03/10 07:13:12;;;;;;;28.58;9.90;;;16.50;93.10;;;;;;5033931;28;20065;-79
2023/03/10 07:15:38;;;;;;;38.17;11.73;;;16.50;93.10;;;;;;5027397;28;20049;-78
2023/03/10 07:18:04;;;;;;;34.78;11.95;;;16.60;93.10;;;;;;5015243;28;20129;-82
2023/03/10 07:20:30;;;;;;;34.55;11.35;;;16.60;93.00;;;;;;5015234;28;20042;-81
2023/03/10 07:22:56;;;;;;;34.17;11.48;;;16.60;93.00;;;;;;5030293;28;20124;-76
2023/03/10 07:25:22;;;;;;;32.75;12.00;;;16.60;93.00;;;;;;5023410;28;20026;-80
2023/03/10 07:27:48;;;;;;;37.00;11.85;;;16.70;93.00;;;;;;5014389;28;20509;-79
2023/03/10 07:30:14;;;;;;;27.38;11.32;;;16.60;92.90;;;;;;5014166;28;20033;-77
2023/03/10 07:32:40;;;;;;;31.25;12.20;;;16.70;93.00;;;;;;5014597;28;20056;-79
2023/03/10 07:35:06;;;;;;;30.45;11.88;;;16.70;92.90;;;;;;5013496;28;20057;-77
2023/03/10 07:37:32;;;;;;;31.70;11.77;;;16.70;92.90;;;;;;5011595;28;20394;-78
2023/03/10 07:39:58;;;;;;;29.75;10.45;;;16.70;92.80;;;;;;4995416;28;20034;-77
2023/03/10 07:42:23;;;;;;;32.85;11.00;;;16.80;92.80;;;;;;5013233;28;20139;-81
2023/03/10 07:44:49;;;;;;;29.40;10.85;;;16.80;92.80;;;;;;5015294;28;20045;-78
2023/03/10 07:47:15;;;;;;;33.15;11.02;;;16.80;92.50;;;;;;5024831;28;20049;-81
2023/03/10 07:49:45;;;;;;;26.23;9.50;;;16.90;92.50;;;;;;5032552;28;20133;-82
2023/03/10 07:52:13;;;;;;;22.98;9.57;;;16.90;92.40;;;;;;5031887;28;20026;-84
2023/03/10 07:54:38;;;;;;;24.13;10.45;;;17.00;92.40;;;;;;5030383;28;20382;-82
2023/03/10 07:57:04;;;;;;;26.65;10.77;;;17.00;92.20;;;;;;5028731;28;20049;-82
2023/03/10 07:59:30;;;;;;;29.83;11.02;;;16.90;92.20;;;;;;5028669;28;20037;-82
2023/03/10 08:01:55;;;;;;;29.33;10.48;;;16.90;92.20;;;;;;5031732;28;20068;-82
2023/03/10 08:04:21;;;;;;;34.03;11.23;;;16.90;92.20;;;;;;5031863;28;20058;-81
2023/03/10 08:06:46;;;;;;;34.72;10.40;;;16.90;92.20;;;;;;5009932;28;20366;-82
2023/03/10 08:09:12;;;;;;;26.65;9.30;;;16.90;92.20;;;;;;5026126;28;20406;-81
2023/03/10 08:11:38;;;;;;;32.90;8.93;;;16.80;92.20;;;;;;5024235;28;20034;-80
2023/03/10 08:14:03;;;;;;;26.92;8.90;;;16.80;92.30;;;;;;5017227;28;20030;-82
2023/03/10 08:16:29;;;;;;;27.20;8.68;;;16.80;92.30;;;;;;5018910;28;20106;-80
2023/03/10 08:18:55;;;;;;;32.30;9.02;;;16.80;92.30;;;;;;5002696;28;20052;-80
2023/03/10 08:21:21;;;;;;;25.98;8.60;;;16.70;92.30;;;;;;5020551;28;20026;-81
2023/03/10 08:23:47;;;;;;;29.95;9.50;;;16.80;92.30;;;;;;5021058;28;20514;-79
2023/03/10 08:26:16;;;;;;;30.48;8.57;;;16.80;92.30;;;;;;5016321;28;20500;-80
2023/03/10 08:28:42;;;;;;;27.50;8.57;;;16.80;92.30;;;;;;5016549;28;20041;-80
2023/03/10 08:31:10;;;;;;;30.23;9.13;;;16.80;92.20;;;;;;5016341;28;20096;-80
2023/03/10 08:33:37;;;;;;;25.55;8.98;;;16.90;92.20;;;;;;5018212;28;20066;-80
2023/03/10 08:36:09;;;;;;;31.05;9.45;;;16.90;92.20;;;;;;5020236;28;20381;-80
2023/03/10 08:38:35;;;;;;;26.48;8.45;;;16.90;92.10;;;;;;5002899;28;20120;-79
2023/03/10 08:41:19;;;;;;;27.85;8.18;;;17.00;92.30;;;;;;5016625;28;20125;-79
2023/03/10 08:43:46;;;;;;;28.00;8.35;;;17.00;91.90;;;;;;5022166;28;20097;-81
2023/03/10 08:46:12;;;;;;;23.48;7.72;;;17.00;92.00;;;;;;5027816;28;20053;-80
2023/03/10 08:48:38;;;;;;;29.92;8.77;;;17.00;92.00;;;;;;5027180;28;20402;-80
2023/03/10 08:51:05;;;;;;;26.77;7.93;;;17.00;92.10;;;;;;5025406;28;20061;-80
2023/03/10 08:53:32;;;;;;;29.00;7.30;;;17.00;92.00;;;;;;5025035;28;20109;-80
2023/03/10 08:55:58;;;;;;;28.65;8.10;;;16.90;92.10;;;;;;5024417;28;20030;-80
2023/03/10 08:58:24;;;;;;;27.70;8.70;;;16.90;92.20;;;;;;5023465;28;20040;-80
2023/03/10 09:00:50;;;;;;;26.63;7.43;;;16.90;92.20;;;;;;5025301;28;20052;-80
2023/03/10 09:03:17;;;;;;;28.70;7.20;;;16.90;92.20;;;;;;5023352;28;20074;-81
2023/03/10 09:05:43;;;;;;;27.85;8.57;;;16.90;92.30;;;;;;5021659;28;20536;-79
2023/03/10 09:08:09;;;;;;;23.65;7.05;;;16.90;92.20;;;;;;5005254;28;20045;-81
2023/03/10 09:10:37;;;;;;;25.08;6.60;;;16.90;92.20;;;;;;5007155;28;20061;-81
2023/03/10 09:13:03;;;;;;;20.83;6.45;;;16.90;92.30;;;;;;5023193;28;20699;-81
2023/03/10 09:15:29;;;;;;;30.25;7.32;;;16.90;92.50;;;;;;5023430;28;20112;-82
2023/03/10 09:17:55;;;;;;;18.67;6.60;;;16.90;92.20;;;;;;5024157;28;20034;-81
2023/03/10 09:20:24;;;;;;;22.50;6.45;;;16.90;92.10;;;;;;5023586;28;20045;-80
2023/03/10 09:22:52;;;;;;;25.02;6.93;;;17.00;92.10;;;;;;5019836;28;20030;-80
2023/03/10 09:25:18;;;;;;;21.42;6.03;;;17.00;91.90;;;;;;5021022;28;20062;-81
2023/03/10 09:27:44;;;;;;;24.25;6.80;;;17.10;91.80;;;;;;5022697;28;20034;-81
2023/03/10 09:30:10;;;;;;;20.15;5.60;;;17.20;91.70;;;;;;5023595;28;20073;-80
2023/03/10 09:32:36;;;;;;;25.02;6.97;;;17.20;91.50;;;;;;5023616;28;20066;-81
2023/03/10 09:35:02;;;;;;;19.90;5.60;;;17.30;91.50;;;;;;5021628;28;20054;-81
2023/03/10 09:37:28;;;;;;;20.98;6.47;;;17.40;91.40;;;;;;5021780;28;20077;-81
2023/03/10 09:39:53;;;;;;;23.70;6.50;;;17.40;91.20;;;;;;5022828;28;20026;-79
2023/03/10 09:42:32;;;;;;;21.00;6.85;;;17.40;91.00;;;;;;5022307;28;20033;-81
2023/03/10 09:45:20;;;;;;;25.52;7.28;;;17.60;91.00;;;;;;5022761;28;20037;-81
2023/03/10 09:48:20;;;;;;;20.23;7.28;;;17.60;90.90;;;;;;5023515;28;20062;-79
2023/03/10 09:50:48;;;;;;;19.92;6.65;;;17.70;90.70;;;;;;5025125;28;20101;-80
2023/03/10 09:53:48;;;;;;;19.02;5.85;;;17.90;90.30;;;;;;5025486;28;20054;-78
2023/03/10 09:56:17;;;;;;;23.80;6.13;;;18.00;90.30;;;;;;5022085;28;20061;-78
2023/03/10 09:58:55;;;;;;;21.90;6.28;;;18.00;90.00;;;;;;5025600;28;20030;-79
2023/03/10 10:01:25;;;;;;;18.58;5.55;;;18.00;90.00;;;;;;5024799;28;20078;-81
2023/03/10 10:04:03;;;;;;;23.15;6.18;;;18.00;90.10;;;;;;5022312;28;20128;-79
2023/03/10 10:06:35;;;;;;;19.90;5.72;;;17.90;90.00;;;;;;5023602;28;20032;-80
2023/03/10 10:09:03;;;;;;;16.08;5.55;;;17.90;89.90;;;;;;5022766;28;20038;-81
2023/03/10 10:11:28;;;;;;;16.45;5.07;;;17.80;89.90;;;;;;5017901;28;20045;-80
2023/03/10 10:14:15;;;;;;;21.48;5.85;;;17.80;89.90;;;;;;5017413;28;20038;-81
2023/03/10 10:16:58;;;;;;;16.65;4.97;;;17.80;90.00;;;;;;5017114;28;20045;-81
2023/03/10 10:19:26;;;;;;;14.73;4.45;;;17.70;90.00;;;;;;5017571;28;20054;-80
2023/03/10 10:22:16;;;;;;;19.42;5.18;;;17.60;89.70;;;;;;5018570;28;20044;-79
2023/03/10 10:24:59;;;;;;;15.90;4.90;;;17.50;90.00;;;;;;5017828;28;20441;-79
2023/03/10 10:27:25;;;;;;;15.80;5.13;;;17.50;89.50;;;;;;5002271;28;20098;-81
2023/03/10 10:29:51;;;;;;;17.70;5.32;;;17.60;89.90;;;;;;5026100;28;20085;-79
2023/03/10 10:32:17;;;;;;;18.02;5.32;;;17.60;89.70;;;;;;5034652;28;20034;-80
2023/03/10 10:34:46;;;;;;;17.92;4.85;;;17.70;89.50;;;;;;5032185;28;20089;-80
2023/03/10 10:37:41;;;;;;;17.55;4.82;;;17.70;89.50;;;;;;5026830;28;20134;-80
2023/03/10 10:40:25;;;;;;;14.57;5.00;;;17.60;89.90;;;;;;5021402;28;20427;-81
2023/03/10 10:42:52;;;;;;;;;;;17.60;89.50;;;;;;5021013;28;20038;-81
2023/03/10 10:45:27;;;;;;;16.05;4.82;;;17.60;89.50;;;;;;5020385;28;19913;-80
2023/03/10 10:47:54;;;;;;;16.55;5.03;;;17.70;90.00;;;;;;5018831;28;20087;-80
2023/03/10 10:50:29;;;;;;;18.27;5.35;;;17.80;89.10;;;;;;5020576;28;20026;-81
2023/03/10 10:53:18;;;;;;;17.33;4.30;;;17.90;88.90;;;;;;5019338;28;20038;-79
2023/03/10 10:55:47;;;;;;;19.58;4.78;;;18.00;89.10;;;;;;5019464;28;20041;-80
2023/03/10 10:58:34;;;;;;;18.02;4.95;;;18.30;88.20;;;;;;5019440;28;20081;-81
2023/03/10 11:01:15;;;;;;;18.80;5.38;;;18.60;88.00;;;;;;5018389;28;20042;-80
2023/03/10 11:03:48;;;;;;;17.27;4.50;;;18.80;87.40;;;;;;5018005;28;20081;-80
2023/03/10 11:06:28;;;;;;;14.77;4.88;;;19.00;86.50;;;;;;5018184;28;20518;-80
2023/03/10 11:09:05;;;;;;;17.17;5.32;;;19.00;86.20;;;;;;5017013;28;20510;-80
2023/03/10 11:11:37;;;;;;;18.80;4.78;;;19.10;86.10;;;;;;5016776;28;20041;-80
2023/03/10 11:14:11;;;;;;;19.23;4.90;;;19.10;85.50;;;;;;5015545;28;20034;-80
2023/03/10 11:16:55;;;;;;;20.40;5.20;;;19.20;84.80;;;;;;5015850;28;20066;-79
2023/03/10 11:19:21;;;;;;;14.98;4.65;;;19.20;84.90;;;;;;5015381;28;20038;-80
2023/03/10 11:21:52;;;;;;;15.05;4.47;;;19.20;84.70;;;;;;5015339;28;20088;-80
2023/03/10 11:24:24;;;;;;;16.60;4.63;;;19.10;84.50;;;;;;5015359;28;20104;-79
2023/03/10 11:27:00;;;;;;;20.10;5.38;;;19.00;84.60;;;;;;5015741;28;20025;-79
2023/03/10 11:30:09;;;;;;;14.10;4.35;;;18.90;84.90;;;;;;5016195;28;20125;-80
2023/03/10 11:32:46;;;;;;;16.90;4.80;;;18.80;85.10;;;;;;4997998;28;20113;-80
2023/03/10 11:35:44;;;;;;;16.00;5.18;;;18.70;85.30;;;;;;5015727;28;20072;-79
2023/03/10 11:38:28;;;;;;;16.48;4.57;;;18.60;85.20;;;;;;5015625;28;20038;-80
2023/03/10 11:40:57;;;;;;;15.13;4.10;;;18.60;85.30;;;;;;4997435;28;20394;-80
2023/03/10 11:43:38;;;;;;;19.35;4.90;;;18.50;85.40;;;;;;5016506;28;20041;-78
2023/03/10 11:46:32;;;;;;;18.33;4.50;;;18.50;85.30;;;;;;5017319;28;20034;-80
2023/03/10 11:49:10;;;;;;;18.23;4.70;;;18.50;84.60;;;;;;5010610;28;20053;-79
2023/03/10 11:51:38;;;;;;;17.58;4.63;;;18.50;84.60;;;;;;5016577;28;20081;-80
2023/03/10 11:54:29;;;;;;;19.70;5.47;;;18.70;84.40;;;;;;5016728;28;20129;-80
2023/03/10 11:56:57;;;;;;;19.80;5.32;;;18.80;83.90;;;;;;5016510;28;20064;-80
2023/03/10 11:59:26;;;;;;;20.35;4.55;;;18.90;82.90;;;;;;4999207;28;20089;-80
2023/03/10 12:01:59;;;;;;;24.73;5.65;;;19.00;82.40;;;;;;5023327;28;20046;-80
2023/03/10 12:04:47;;;;;;;18.98;5.03;;;18.90;82.00;;;;;;5000407;28;20046;-79
2023/03/10 12:07:23;;;;;;;22.42;5.88;;;18.90;81.70;;;;;;5016307;28;20106;-80
2023/03/10 12:09:53;;;;;;;19.60;4.93;;;19.00;81.70;;;;;;5014311;28;20075;-78
2023/03/10 12:12:22;;;;;;;23.23;4.78;;;19.10;80.60;;;;;;4997242;28;20051;-80
2023/03/10 12:14:48;;;;;;;17.23;5.78;;;19.20;80.60;;;;;;5015343;28;20030;-79
2023/03/10 12:17:16;;;;;;;17.13;4.65;;;19.20;80.50;;;;;;5016616;28;20054;-80
2023/03/10 12:20:11;;;;;;;23.23;5.38;;;19.20;80.40;;;;;;5017402;28;20029;-80
2023/03/10 12:22:42;;;;;;;18.60;5.35;;;19.10;80.90;;;;;;5019103;28;20038;-80
2023/03/10 12:25:26;;;;;;;23.90;5.85;;;19.00;80.90;;;;;;5017869;28;20049;-80
2023/03/10 12:28:21;;;;;;;22.98;5.57;;;18.90;80.80;;;;;;5017968;28;20054;-80
2023/03/10 12:30:57;;;;;;;24.10;5.97;;;18.80;81.20;;;;;;5018641;28;20114;-79
2023/03/10 12:33:29;;;;;;;27.67;5.60;;;18.80;81.20;;;;;;5020440;28;20061;-79
2023/03/10 12:36:07;;;;;;;28.23;7.20;;;18.70;80.80;;;;;;5017999;28;20030;-80
2023/03/10 12:38:47;;;;;;;28.67;6.07;;;18.80;80.80;;;;;;5015945;28;20076;-79
2023/03/10 12:41:46;;;;;;;23.63;5.75;;;18.80;81.00;;;;;;5015430;28;20069;-79
2023/03/10 12:44:42;;;;;;;28.27;5.97;;;18.90;80.90;;;;;;5016073;28;20145;-79
2023/03/10 12:47:12;;;;;;;28.20;6.90;;;18.90;81.00;;;;;;5016501;28;20486;-79
2023/03/10 12:49:40;;;;;;;20.83;6.07;;;18.80;81.10;;;;;;5016629;28;20113;-79